EUFO2: Eufaula Lake

Data processed at Thu Jun 14 2018 23:09


All information presented herein is the property of the government of the United States of America and may be revised or deleted at any time without prior notice.
Dissemination of this information without the expressed written consent of the Public Affairs Office, Tulsa District U.S. Army Corps of Engineers is strictly prohibited.
These data are gathered electronically and, as presented, have not undergone any form of quality control. These data are not guaranteed to be valid or correct.
Go to home page.
Go to station list.

Upstream stations:

Downstream station:
Previous Day
Next Day
Current Day
    
SHEF ID:       EUFO2     Eufaula Lake
STATION TYPE:  RESERVOIR
Normal Pool:  Bottom =   565.00, Top =   585.00

               PRECIP ELEVATION   STORAGE   TW-ELEV    INFLOW   RELEASE  AIR-TEMP  WIND-DIRWIND-SPEED REL-HUMID SOLAR-RAD   VOLTAGE  BAT-LOAD
                   in        ft     ac-ft        ft       cfs       cfs         F       deg       mph         %      W/m2      volt      volt
              Ccp-Rev   Ccp-Rev   Ccp-Rev   Ccp-Rev  Regi-Rev  Regi-Rev   Ccp-Rev   Ccp-Rev   Ccp-Rev   Ccp-Rev   Ccp-Rev   Ccp-Rev   Ccp-Rev
(US/Central)
06/12 00:00      0.00    585.17   2210933    483.53        30        30     79.23    120.60      3.38     74.42      0.00     13.81     13.59
06/12 01:00      0.00    585.18   2211878    483.29        30        30     77.68    124.20      3.04     79.67      0.00     13.81     13.59
06/12 02:00      0.00    585.19   2212824    483.12       412        30     77.58    132.20      2.92     78.14      0.00     13.81     13.59
06/12 03:00      0.00    585.19   2212824    482.98       793        30     77.92    120.90      4.13     76.80      0.00     13.81     13.59
06/12 04:00      0.00    585.19   2212824    482.89      1175        30     77.90    124.20      4.30     76.30      0.00     13.81     13.59
06/12 05:00      0.00    585.20   2213770    482.82      1471        30     79.43    122.00      3.70     69.59      0.00     13.80     13.59
06/12 06:00      0.00    585.22   2215661    482.78      1767        30     81.52    147.60      2.89     63.36      0.00     13.80     13.59
06/12 07:00      0.00    585.19   2212824    482.77      1682        30     76.93    107.00      1.96     65.32      3.00     13.80     13.59
06/12 08:00      0.00    585.10   2204313    482.73      3843        30     70.75     50.80      2.70     81.55      3.00     13.80     13.59
06/12 09:00      0.01    585.14   2208096    482.74      3462        30     68.88    112.10      5.25     89.49     15.00     13.80     13.59
06/12 10:00      0.04    585.21   2214715    482.74      3165        30     69.33    119.00      3.03     91.64     32.00     13.80     13.59
06/12 11:00      0.07    585.25   2218498    482.74      7803        30     71.98    274.50     10.49     81.56     22.00     13.79     13.59
06/12 12:00      0.02    585.21   2214715    482.73      8564        30     75.16    176.30      6.87     68.38    116.00     13.79     13.59
06/12 13:00      0.00    585.32   2225117    483.71      7079       486     75.72    262.60     10.91     72.41    601.00     13.79     13.59
06/12 14:00      0.00    585.34   2227009    486.47      7116      7988     83.19    247.50      5.05     54.88    874.00     13.79     13.59
06/12 15:00      0.00    585.26   2219443    487.67      7154      8426     84.70    238.00      1.54     50.97    662.00     13.79     13.59
06/12 16:00      0.00    585.22   2215661    488.81      2989     12305     84.94    115.40      6.29     59.64    617.00     13.79     13.59
06/12 17:00      0.00    585.24   2217552    488.96      2703     12305     85.17    113.30      5.95     54.27    631.00     13.79     13.59
06/12 18:00      0.00    585.19   2212824    489.05      2416     12255     86.25     93.50      3.97     47.19    410.00     13.79     13.59
06/12 19:00      0.00    585.17   2210933    488.84      6245     12405     84.29     84.70      1.79     67.03    312.00     13.79     13.59
06/12 20:00      0.00    585.22   2215661    487.16      6206      4126     81.21    105.30      1.45     77.29    123.00     13.79     13.59
06/12 21:00      0.00    585.21   2214715    485.93      5435       260     78.35    147.40      0.03     83.88     10.00     13.80     13.59
06/12 22:00      0.00    585.22   2215661    485.06      4663        30     77.23    128.10      0.78     86.92      0.00     13.80     13.59
06/12 23:00      0.00    585.22   2215661    484.45      3887        30     75.60    118.10      0.20     91.93      0.00     13.80     13.59